This is the latest recevied weather packets stored in our database for station/object EA5CH. If no packets are shown the sender has not sent any weather packets the latest 10 day(s).
| Time | Temp. | Humidity | Pressure | Rain* | Wind** | Luminosity | Snow |
|---|---|---|---|---|---|---|---|
| 1777950918 | 16.11° C | 88% | 1012.6 hPa | 0 mm | - | - | - |
| 1777946718 | 16.67° C | 89% | 1012.6 hPa | 0 mm | - | - | - |
| 1777942518 | 17.22° C | 89% | 1013.5 hPa | 0 mm | - | - | - |
| 1777937718 | 16.67° C | 91% | 1013.9 hPa | 0 mm | - | - | - |
| 1777936539 | 16.67° C | 90% | 1013.8 hPa | 0 mm | - | - | - |
| 1777934118 | 16.67° C | 89% | 1013.6 hPa | 0 mm | - | - | - |
| 1777928718 | 17.78° C | 87% | 1013.4 hPa | 0 mm | - | - | - |
| 1777917319 | 20.56° C | 77% | 1012.5 hPa | 0 mm | - | - | - |
| 1777916718 | 20.56° C | 77% | 1012.6 hPa | 0 mm | - | - | - |
| 1777911918 | 22.22° C | 78% | 1012.3 hPa | 0 mm | - | - | - |
| 1777907738 | 21.67° C | 80% | 1012.7 hPa | 0 mm | - | - | - |
| 1777905918 | 20.56° C | 82% | 1012.8 hPa | 0 mm | - | - | - |
| 1777899919 | 21.67° C | 80% | 1013.1 hPa | 0 mm | - | - | - |
| 1777892118 | 21.11° C | 74% | 1014.3 hPa | 0 mm | - | - | - |
| 1777890918 | 20.56° C | 76% | 1014.3 hPa | 0 mm | - | - | - |
| 1777888518 | 20.56° C | 77% | 1014.5 hPa | 0 mm | - | - | - |
| 1777884919 | 21.11° C | 80% | 1014.5 hPa | 0 mm | - | - | - |
| 1777881918 | 20° C | 83% | 1014.8 hPa | 0 mm | - | - | - |
| 1777879538 | 19.44° C | 88% | 1014.6 hPa | 0 mm | - | - | - |
| 1777877139 | 18.33° C | 93% | 1014.5 hPa | 0 mm | - | - | - |
| 1777874739 | 17.78° C | 94% | 1014.2 hPa | 0 mm | - | - | - |
| 1777873518 | 17.22° C | 94% | 1014.1 hPa | 0 mm | - | - | - |
| 1777868119 | 16.67° C | 94% | 1013.9 hPa | 0.25 mm | - | - | - |
| 1777865718 | 16.67° C | 94% | 1014.4 hPa | 0.51 mm | - | - | - |
| 1777863919 | 17.22° C | 93% | 1014.8 hPa | 0.51 mm | - | - | - |
* Rain latest hour (hover to see other rain measurements)
** Current wind speed in m/s (hover to see current wind gust speed)